Webcam

2023/02/04 23:50 EBBR 042350Z 28006KT 9999 FEW008 08/07 Q1038 NOSIG

Webcam

--- Refresh now ---